Time;durP1;ratioP1;P1;durP2;ratioP2;P2;SDS_P1;SDS_P2;PMS_P1;PMS_P2;Temp;Humidity;BMP_temperature;BMP_pressure;BME280_temperature;BME280_humidity;BME280_pressure;Samples;Min_cycle;Max_cycle;Signal;HPM_P1;HPM_P2
2021/04/13 00:02:53;;;;;;;9.13;2.35;;;;;;;2.39;74.51;102576.63;9989332;29;20052;-68
2021/04/13 00:07:50;;;;;;;6.10;1.90;;;;;;;2.26;75.59;102585.63;9999803;29;20084;-66
2021/04/13 00:12:47;;;;;;;8.65;2.55;;;;;;;2.26;75.39;102582.94;9989476;29;20131;-67
2021/04/13 00:17:44;;;;;;;4.30;2.03;;;;;;;2.26;75.77;102565.91;9998629;29;20087;-64
2021/04/13 00:22:42;;;;;;;7.45;2.45;;;;;;;2.34;75.61;102575.63;9997376;29;20048;-66
2021/04/13 00:27:38;;;;;;;9.95;2.55;;;;;;;2.22;76.10;102576.28;9999843;29;20047;-65
2021/04/13 00:32:37;;;;;;;9.25;2.67;;;;;;;2.29;75.47;102569.00;10003507;29;20067;-65
2021/04/13 00:37:33;;;;;;;6.50;2.30;;;;;;;2.14;76.26;102565.78;9999077;29;20079;-66
2021/04/13 00:42:31;;;;;;;7.07;2.78;;;;;;;2.14;76.42;102567.66;10006170;29;20103;-66
2021/04/13 00:47:32;;;;;;;5.28;2.53;;;;;;;2.22;76.28;102554.69;10007998;29;20071;-64
2021/04/13 00:52:36;;;;;;;7.00;2.22;;;;;;;2.10;76.89;102556.44;9992335;29;20040;-66
2021/04/13 00:57:40;;;;;;;6.60;2.55;;;;;;;2.09;76.61;102560.19;10010762;29;20099;-67
2021/04/13 01:02:37;;;;;;;4.65;2.30;;;;;;;2.00;77.26;102559.63;10007304;29;20746;-67
2021/04/13 01:07:36;;;;;;;5.53;2.45;;;;;;;2.06;77.21;102560.59;9962449;29;20135;-65
2021/04/13 01:12:37;;;;;;;6.72;2.25;;;;;;;1.98;77.19;102558.19;10006787;29;20474;-68
2021/04/13 01:17:36;;;;;;;4.63;2.47;;;;;;;2.04;77.04;102562.69;10002846;29;20052;-66
2021/04/13 01:27:51;;;;;;;9.98;3.05;;;;;;;1.92;77.33;102564.41;9992869;29;20068;-67
2021/04/13 01:32:47;;;;;;;4.70;2.30;;;;;;;1.98;77.58;102560.88;9999339;29;21141;-68
2021/04/13 01:42:48;;;;;;;7.55;2.55;;;;;;;1.83;77.99;102561.97;9999170;29;20072;-69
2021/04/13 01:47:47;;;;;;;8.50;3.08;;;;;;;1.74;78.26;102559.72;9998696;29;20054;-68
2021/04/13 01:52:47;;;;;;;5.20;2.50;;;;;;;1.65;79.02;102564.53;9999492;29;20118;-66
2021/04/13 01:58:10;;;;;;;10.48;3.25;;;;;;;1.76;78.62;102566.53;9997370;29;20075;-67
2021/04/13 02:03:18;;;;;;;10.85;3.15;;;;;;;1.68;78.96;102564.94;9984721;29;20451;-68
2021/04/13 02:08:22;;;;;;;7.93;3.33;;;;;;;1.64;79.66;102568.25;10007355;29;20587;-67
2021/04/13 02:13:41;;;;;;;8.00;2.85;;;;;;;1.64;79.48;102552.06;10005050;29;20091;-67
2021/04/13 02:18:42;;;;;;;8.35;3.20;;;;;;;1.61;80.07;102558.72;9997939;29;20047;-67
2021/04/13 02:23:46;;;;;;;7.00;2.88;;;;;;;1.47;80.86;102552.56;9997492;29;20047;-68
2021/04/13 02:28:43;;;;;;;;;;;;;;;1.50;80.78;102558.56;9998637;29;20138;-67
2021/04/13 02:33:43;;;;;;;7.72;3.22;;;;;;;1.50;80.77;102558.56;10008908;29;20132;-67
2021/04/13 02:38:42;;;;;;;8.30;3.22;;;;;;;1.46;80.65;102561.69;9987236;29;20537;-67
2021/04/13 02:43:46;;;;;;;11.00;3.33;;;;;;;1.26;82.07;102566.28;9995719;29;20072;-67
2021/04/13 02:48:50;;;;;;;11.00;2.80;;;;;;;1.35;81.79;102567.72;9989388;29;20056;-67
2021/04/13 02:53:59;;;;;;;6.90;2.95;;;;;;;1.41;81.94;102563.34;9988383;29;20052;-68
2021/04/13 02:59:11;;;;;;;8.27;2.60;;;;;;;1.42;81.70;102560.44;9998794;29;20134;-67
2021/04/13 03:04:09;;;;;;;5.18;2.90;;;;;;;1.50;81.58;102572.03;9990490;29;20051;-67
2021/04/13 03:09:07;;;;;;;12.15;3.22;;;;;;;1.45;81.22;102573.50;10002636;29;20051;-68
2021/04/13 03:14:05;;;;;;;9.65;2.67;;;;;;;1.39;81.27;102565.41;10001503;29;20112;-68
2021/04/13 03:19:07;;;;;;;7.35;2.67;;;;;;;1.34;81.72;102568.75;10001321;29;20055;-69
2021/04/13 03:24:09;;;;;;;7.90;2.70;;;;;;;1.36;81.64;102558.59;9991442;29;20059;-67
2021/04/13 03:29:18;;;;;;;9.10;3.08;;;;;;;1.44;81.45;102561.06;9998058;29;20490;-68
2021/04/13 03:34:17;;;;;;;11.68;3.63;;;;;;;1.45;80.99;102560.03;9991185;29;20088;-66
2021/04/13 03:39:23;;;;;;;10.25;3.58;;;;;;;1.41;81.84;102566.88;9983324;29;20052;-67
2021/04/13 03:44:19;;;;;;;15.30;4.00;;;;;;;1.49;81.34;102570.41;9989811;29;20574;-67
2021/04/13 03:49:36;;;;;;;8.23;3.53;;;;;;;1.42;81.58;102568.53;9989411;29;20043;-66
2021/04/13 03:54:36;;;;;;;9.30;3.92;;;;;;;1.30;82.23;102578.31;9995121;29;20071;-67
2021/04/13 03:59:39;;;;;;;15.02;3.50;;;;;;;1.28;82.24;102583.09;9999213;29;20047;-66
2021/04/13 04:04:38;;;;;;;12.05;3.50;;;;;;;1.30;82.19;102583.72;10000785;29;20561;-69
2021/04/13 04:09:36;;;;;;;7.03;3.63;;;;;;;1.23;82.86;102594.50;9990494;29;20505;-68
2021/04/13 04:14:33;;;;;;;13.73;4.65;;;;;;;1.37;82.56;102600.69;10012818;29;20520;-70
2021/04/13 04:19:30;;;;;;;9.80;4.28;;;;;;;1.33;82.78;102598.63;10004822;29;20043;-68
2021/04/13 04:24:36;;;;;;;13.75;4.57;;;;;;;1.43;82.68;102599.84;10010689;29;20043;-68
2021/04/13 04:29:49;;;;;;;12.82;4.32;;;;;;;1.33;83.08;102599.44;10002942;29;20044;-68
2021/04/13 04:34:45;;;;;;;11.02;2.90;;;;;;;1.21;83.61;102628.06;10012069;29;20044;-69
2021/04/13 04:39:41;;;;;;;8.63;4.20;;;;;;;1.39;83.00;102620.19;9992391;29;20079;-69
2021/04/13 04:44:39;;;;;;;12.15;3.75;;;;;;;1.49;82.77;102645.88;10000574;29;20048;-70
2021/04/13 04:49:41;;;;;;;7.35;3.55;;;;;;;1.42;82.95;102635.94;10000904;29;20048;-68
2021/04/13 04:54:41;;;;;;;13.13;4.03;;;;;;;1.45;82.75;102619.31;9993445;29;20040;-68
2021/04/13 04:59:37;;;;;;;8.68;3.53;;;;;;;1.56;82.50;102633.22;10001909;29;20069;-69
2021/04/13 05:04:33;;;;;;;8.32;3.30;;;;;;;1.53;82.81;102630.91;9989651;29;20044;-67
2021/04/13 05:09:29;;;;;;;10.20;3.10;;;;;;;1.66;82.71;102628.19;9997254;29;20052;-67
2021/04/13 05:14:24;;;;;;;8.18;3.53;;;;;;;1.67;82.35;102643.34;10004706;29;20074;-68
2021/04/13 05:19:21;;;;;;;8.95;3.20;;;;;;;1.71;82.13;102649.97;10004743;29;20048;-69
2021/04/13 05:24:17;;;;;;;8.90;4.03;;;;;;;1.69;82.16;102662.81;9994033;29;20494;-68
2021/04/13 05:29:13;;;;;;;7.43;3.50;;;;;;;1.84;82.28;102671.53;9998493;29;20056;-69
2021/04/13 05:34:10;;;;;;;7.97;3.08;;;;;;;1.87;82.06;102676.47;9999281;29;20509;-69
2021/04/13 05:39:06;;;;;;;9.85;3.10;;;;;;;1.94;81.47;102670.25;9993889;29;20066;-68
2021/04/13 05:44:03;;;;;;;10.07;3.40;;;;;;;2.04;81.64;102676.03;10000005;29;20519;-69
2021/04/13 05:49:00;;;;;;;12.52;3.75;;;;;;;2.02;81.48;102667.31;10000648;29;20104;-69
2021/04/13 05:53:56;;;;;;;9.70;3.38;;;;;;;2.05;81.78;102678.50;9994823;29;20084;-68
2021/04/13 05:58:55;;;;;;;10.07;3.50;;;;;;;2.16;81.70;102690.53;9994616;29;20055;-69
2021/04/13 06:03:51;;;;;;;7.32;3.00;;;;;;;2.17;81.34;102691.34;10000302;29;20119;-71
2021/04/13 06:08:49;;;;;;;15.15;3.50;;;;;;;2.36;80.85;102689.63;9998577;29;20104;-66
2021/04/13 06:13:46;;;;;;;14.35;3.80;;;;;;;2.41;80.72;102687.09;10018841;29;20554;-69
2021/04/13 06:18:42;;;;;;;11.48;4.07;;;;;;;2.43;80.71;102695.81;9987401;29;20048;-71
2021/04/13 06:23:38;;;;;;;10.27;2.75;;;;;;;2.46;80.81;102700.78;10009063;29;20058;-67
2021/04/13 06:28:34;;;;;;;12.50;4.53;;;;;;;2.56;81.06;102698.44;9994264;29;20399;-69
2021/04/13 06:33:32;;;;;;;13.00;4.15;;;;;;;2.68;80.84;102699.41;9991923;29;20699;-65
2021/04/13 06:38:28;;;;;;;19.10;3.85;;;;;;;2.82;80.37;102705.56;9990266;29;20063;-68
2021/04/13 06:43:36;;;;;;;15.30;4.53;;;;;;;2.84;80.70;102718.88;9989733;29;20063;-67
2021/04/13 06:48:57;;;;;;;12.88;3.10;;;;;;;2.90;80.89;102718.00;10001399;29;20134;-67
2021/04/13 06:54:15;;;;;;;19.10;5.15;;;;;;;2.91;80.19;102716.97;9999470;29;20076;-67
2021/04/13 06:59:23;;;;;;;12.52;3.28;;;;;;;2.96;80.46;102727.94;9992544;29;20058;-66
2021/04/13 07:04:30;;;;;;;12.80;3.30;;;;;;;3.06;79.55;102730.97;9993004;29;20467;-67
2021/04/13 07:09:38;;;;;;;11.18;2.85;;;;;;;3.15;79.31;102737.78;9990986;29;20056;-71
2021/04/13 07:14:50;;;;;;;10.82;3.55;;;;;;;3.42;78.59;102742.19;9994428;29;20056;-67
2021/04/13 07:19:56;;;;;;;9.60;3.47;;;;;;;3.58;78.02;102737.06;9995445;29;20180;-70
2021/04/13 07:24:58;;;;;;;9.07;2.28;;;;;;;3.59;76.70;102744.09;10001431;29;20087;-67
2021/04/13 07:30:18;;;;;;;8.10;1.88;;;;;;;3.62;76.59;102747.41;10011725;29;20055;-67
2021/04/13 07:35:18;;;;;;;8.00;1.60;;;;;;;3.59;76.15;102738.69;9995815;29;20709;-68
2021/04/13 07:40:22;;;;;;;7.50;1.25;;;;;;;3.76;75.78;102748.94;10007021;29;20048;-68
2021/04/13 07:45:27;;;;;;;7.93;2.28;;;;;;;4.03;76.06;102759.53;9993940;29;20521;-67
2021/04/13 07:50:51;;;;;;;7.47;1.63;;;;;;;4.11;73.94;102756.56;9987274;29;20131;-68
2021/04/13 07:55:56;;;;;;;8.98;1.92;;;;;;;4.22;73.75;102758.50;10007772;29;20056;-64
2021/04/13 08:01:07;;;;;;;10.82;1.50;;;;;;;4.46;72.77;102761.38;10032724;28;20051;-69
2021/04/13 08:06:26;;;;;;;10.52;2.08;;;;;;;4.53;72.41;102770.25;9994566;29;20115;-65
2021/04/13 08:11:23;;;;;;;7.65;1.60;;;;;;;4.64;72.82;102762.19;9985576;29;20055;-66
2021/04/13 08:16:38;;;;;;;9.65;2.03;;;;;;;4.84;72.11;102771.94;9994778;29;20059;-67
2021/04/13 08:21:35;;;;;;;15.48;2.40;;;;;;;4.91;70.90;102771.84;9994749;29;20064;-67
2021/04/13 08:26:41;;;;;;;16.55;2.30;;;;;;;5.10;70.13;102759.88;9988884;29;20145;-65
2021/04/13 08:37:35;;;;;;;13.95;1.73;;;;;;;5.16;70.55;102769.81;9995884;29;20048;-67
2021/04/13 08:42:52;;;;;;;13.77;2.65;;;;;;;5.25;70.74;102790.13;9998492;29;20055;-69
2021/04/13 08:47:52;;;;;;;15.23;2.60;;;;;;;5.61;69.24;102765.78;9990518;29;20056;-67
2021/04/13 08:52:55;;;;;;;14.15;2.63;;;;;;;5.62;68.49;102767.44;9993996;29;20083;-68
2021/04/13 08:58:12;;;;;;;11.88;2.03;;;;;;;5.67;67.73;102760.25;9995064;29;20071;-68
2021/04/13 09:03:16;;;;;;;17.92;2.50;;;;;;;6.04;68.31;102765.47;9999836;29;20051;-66
2021/04/13 09:08:39;;;;;;;14.02;2.22;;;;;;;6.35;65.75;102766.13;10000193;29;20052;-66
2021/04/13 09:13:40;;;;;;;16.85;1.98;;;;;;;6.67;63.04;102750.22;10001166;29;20040;-67
2021/04/13 09:18:49;;;;;;;14.23;1.90;;;;;;;6.52;61.39;102748.03;9994705;29;20123;-66
2021/04/13 09:24:04;;;;;;;8.85;1.27;;;;;;;6.31;60.73;102744.06;9995626;29;20824;-68
2021/04/13 09:29:01;;;;;;;10.70;1.75;;;;;;;6.26;59.81;102759.41;9987153;29;20446;-67
2021/04/13 09:34:20;;;;;;;13.68;1.85;;;;;;;6.64;56.91;102749.91;9990614;29;20418;-67
2021/04/13 09:39:41;;;;;;;14.75;1.98;;;;;;;6.94;55.99;102747.75;9991924;29;20123;-68
2021/04/13 09:44:45;;;;;;;7.32;1.40;;;;;;;6.81;52.51;102741.78;9993445;29;20456;-68
2021/04/13 09:49:48;;;;;;;11.15;2.63;;;;;;;6.68;49.74;102737.44;9996018;29;20084;-68
2021/04/13 09:54:52;;;;;;;18.10;1.70;;;;;;;7.75;48.27;102757.53;9992507;29;20048;-67
2021/04/13 10:00:32;;;;;;;9.60;1.40;;;;;;;8.63;46.74;102738.59;9994951;29;20052;-68
2021/04/13 10:05:35;;;;;;;9.35;1.20;;;;;;;9.05;43.54;102733.31;9995532;29;20071;-65
2021/04/13 10:10:43;;;;;;;12.10;1.88;;;;;;;9.08;43.55;102736.63;9979110;29;20122;-63
2021/04/13 10:15:45;;;;;;;11.27;1.92;;;;;;;7.70;46.23;102741.94;9991024;29;20044;-66
2021/04/13 10:21:18;;;;;;;8.68;2.28;;;;;;;9.35;42.13;102726.50;9997387;29;20067;-67
2021/04/13 10:27:03;;;;;;;5.95;1.08;;;;;;;10.12;39.77;102748.88;9983420;29;20036;-67
2021/04/13 10:32:17;;;;;;;11.23;1.58;;;;;;;8.72;41.99;102734.31;9997327;29;20060;-68
2021/04/13 10:37:29;;;;;;;10.88;1.42;;;;;;;7.85;49.22;102759.63;10003528;29;20163;-65
2021/04/13 10:42:53;;;;;;;9.63;1.35;;;;;;;7.35;48.95;102748.47;9999862;29;20043;-65
2021/04/13 10:48:30;;;;;;;10.57;1.65;;;;;;;8.30;47.37;102736.78;9975403;29;20131;-64
2021/04/13 10:53:49;;;;;;;8.57;1.80;;;;;;;8.72;47.17;102717.16;9994586;29;20584;-67
2021/04/13 10:59:07;;;;;;;8.90;1.10;;;;;;;9.51;39.11;102726.59;9991598;29;20044;-66
2021/04/13 11:04:46;;;;;;;8.23;1.30;;;;;;;10.56;36.32;102737.63;9997927;29;20095;-68
2021/04/13 11:10:19;;;;;;;4.47;1.05;;;;;;;10.32;35.16;102729.84;9996817;29;20096;-69
2021/04/13 11:15:42;;;;;;;9.75;2.17;;;;;;;10.88;37.89;102725.66;9999869;29;20131;-69
2021/04/13 11:20:59;;;;;;;7.80;1.10;;;;;;;11.24;35.79;102722.97;9981214;29;20067;-65
2021/04/13 11:26:14;;;;;;;6.05;1.38;;;;;;;11.02;33.32;102718.53;9991062;29;20196;-69
2021/04/13 11:32:00;;;;;;;12.02;1.40;;;;;;;12.28;31.63;102698.66;10007532;28;20070;-65
2021/04/13 11:37:18;;;;;;;6.57;1.10;;;;;;;13.01;31.21;102691.63;10036037;28;20040;-63
2021/04/13 11:42:42;;;;;;;9.77;1.38;;;;;;;12.75;33.22;102702.00;10041460;28;20043;-63
2021/04/13 11:48:02;;;;;;;10.70;1.63;;;;;;;12.03;36.54;102701.50;10037252;28;20036;-66
2021/04/13 11:53:09;;;;;;;6.88;1.10;;;;;;;11.64;34.06;102694.72;10025313;29;20089;-69
2021/04/13 11:58:22;;;;;;;5.22;1.23;;;;;;;12.77;32.56;102700.59;9989123;29;20103;-65
2021/04/13 12:03:18;;;;;;;7.55;0.98;;;;;;;12.37;32.72;102686.00;9976075;29;21853;-68
2021/04/13 12:08:29;;;;;;;4.43;1.02;;;;;;;11.39;34.48;102720.22;9990631;29;20115;-69
2021/04/13 12:13:45;;;;;;;8.02;1.10;;;;;;;12.24;34.29;102719.53;9990939;29;20044;-66
2021/04/13 12:18:44;;;;;;;9.02;2.00;;;;;;;11.56;37.39;102728.16;9984835;29;20052;-68
2021/04/13 12:23:47;;;;;;;12.25;2.28;;;;;;;12.25;35.39;102721.16;9994395;29;21481;-67
2021/04/13 12:28:44;;;;;;;8.50;1.88;;;;;;;10.79;39.75;102710.84;9983589;29;20052;-68
2021/04/13 12:34:02;;;;;;;9.07;1.35;;;;;;;11.91;40.46;102727.31;9987251;29;20743;-70
2021/04/13 12:38:58;;;;;;;10.25;1.20;;;;;;;13.24;35.95;102715.63;9991500;29;20139;-67
2021/04/13 12:44:09;;;;;;;6.07;1.55;;;;;;;12.39;35.14;102722.22;9998025;29;20067;-67
2021/04/13 12:49:32;;;;;;;7.43;1.33;;;;;;;12.89;34.06;102713.16;9991969;29;20135;-68
2021/04/13 12:54:40;;;;;;;6.00;1.08;;;;;;;12.29;36.49;102732.41;9995898;29;20054;-67
2021/04/13 12:59:37;;;;;;;10.40;1.60;;;;;;;11.68;37.46;102738.84;10015374;29;20047;-67
2021/04/13 13:04:38;;;;;;;9.75;1.33;;;;;;;10.99;36.54;102745.66;9997745;29;20044;-67
2021/04/13 13:09:34;;;;;;;9.77;2.30;;;;;;;10.56;37.94;102755.91;10000885;29;20898;-67
2021/04/13 13:14:33;;;;;;;5.75;1.30;;;;;;;11.67;35.39;102731.69;9996669;29;20071;-68
2021/04/13 13:19:47;;;;;;;7.00;1.00;;;;;;;12.07;33.18;102746.44;9997573;29;20072;-68
2021/04/13 13:24:49;;;;;;;5.75;0.95;;;;;;;12.29;34.10;102733.22;9995434;29;20546;-67
2021/04/13 13:29:46;;;;;;;7.57;1.55;;;;;;;10.83;37.52;102769.44;9988576;29;20502;-67
2021/04/13 13:34:43;;;;;;;5.43;0.80;;;;;;;11.05;37.30;102748.13;9999779;29;20533;-67
2021/04/13 13:39:40;;;;;;;9.88;1.13;;;;;;;10.64;39.32;102756.22;10000191;29;20048;-66
2021/04/13 13:44:43;;;;;;;6.50;0.68;;;;;;;11.05;39.83;102756.34;9992993;29;20080;-67
2021/04/13 13:49:40;;;;;;;6.70;1.30;;;;;;;11.65;37.81;102744.84;9994052;29;20048;-67
2021/04/13 13:54:38;;;;;;;6.28;0.80;;;;;;;11.87;33.12;102753.63;9990546;29;20048;-68
2021/04/13 13:59:38;;;;;;;5.88;1.20;;;;;;;12.80;33.71;102738.44;9996095;29;20068;-68
2021/04/13 14:04:40;;;;;;;5.75;1.73;;;;;;;11.74;35.94;102752.25;9991686;29;20052;-71
2021/04/13 14:09:37;;;;;;;9.77;1.33;;;;;;;11.81;36.41;102738.25;9997794;29;20056;-65
2021/04/13 14:14:36;;;;;;;15.45;1.67;;;;;;;11.87;36.34;102763.75;9996775;29;20055;-65
2021/04/13 14:19:35;;;;;;;7.32;1.17;;;;;;;12.18;35.77;102745.31;9990966;29;20051;-67
2021/04/13 14:24:39;;;;;;;5.78;1.10;;;;;;;12.59;36.84;102753.38;9991758;29;20581;-66
2021/04/13 14:29:37;;;;;;;8.38;1.63;;;;;;;12.95;36.94;102733.97;9996114;29;20130;-66
2021/04/13 14:34:37;;;;;;;7.72;1.45;;;;;;;13.13;36.63;102738.78;9993036;29;20111;-66
2021/04/13 14:39:37;;;;;;;6.93;1.48;;;;;;;12.89;36.74;102746.91;10003729;29;20064;-65
2021/04/13 14:44:35;;;;;;;7.00;1.33;;;;;;;12.53;37.80;102755.34;9991043;29;20410;-67
2021/04/13 14:49:32;;;;;;;7.88;1.10;;;;;;;11.92;37.62;102739.91;9988357;29;20079;-68
2021/04/13 14:54:28;;;;;;;4.43;0.90;;;;;;;11.46;38.57;102737.19;9995575;29;20533;-67
2021/04/13 14:59:24;;;;;;;5.63;0.60;;;;;;;10.32;38.25;102756.38;9985904;29;20048;-65
2021/04/13 15:04:20;;;;;;;5.93;0.85;;;;;;;11.27;37.85;102749.78;9988033;29;20099;-66
2021/04/13 15:09:16;;;;;;;4.55;0.95;;;;;;;11.08;36.37;102752.25;9991160;29;20066;-67
2021/04/13 15:14:12;;;;;;;4.57;0.60;;;;;;;10.08;39.35;102750.47;10002359;29;20539;-65
2021/04/13 15:19:08;;;;;;;9.93;1.05;;;;;;;10.15;39.29;102756.53;9999868;29;20103;-66
2021/04/13 15:24:04;;;;;;;7.65;0.68;;;;;;;11.02;39.16;102743.19;9990506;29;20052;-67
2021/04/13 15:29:01;;;;;;;4.35;0.63;;;;;;;11.14;38.69;102741.03;9993627;29;20052;-66
2021/04/13 15:33:59;;;;;;;5.88;1.00;;;;;;;-146.18;100.00;67994.34;9988090;29;20059;-66
2021/04/13 15:39:07;;;;;;;4.45;1.10;;;;;;;-146.18;100.00;67994.34;9994488;29;20043;-67
2021/04/13 15:44:15;;;;;;;13.52;1.45;;;;;;;-146.18;100.00;67994.34;9976815;29;20048;-66
2021/04/13 15:49:21;;;;;;;10.38;1.73;;;;;;;-146.18;100.00;67994.34;9966292;29;20079;-66
2021/04/13 15:54:18;;;;;;;8.27;1.40;;;;;;;-146.18;100.00;67994.34;9984894;29;20107;-67
2021/04/13 15:59:18;;;;;;;11.23;1.80;;;;;;;-146.18;100.00;67994.34;9982830;29;20115;-66
2021/04/13 16:04:15;;;;;;;12.70;1.30;;;;;;;-146.18;100.00;67994.34;9984473;29;20050;-66
2021/04/13 16:09:12;;;;;;;7.75;2.25;;;;;;;-146.18;100.00;67994.34;9993948;29;20147;-65
2021/04/13 16:14:09;;;;;;;9.48;2.00;;;;;;;-146.18;100.00;67994.34;9991862;29;20062;-65
2021/04/13 16:19:05;;;;;;;8.05;1.52;;;;;;;-146.18;100.00;67994.34;9983251;29;20477;-66
2021/04/13 16:24:02;;;;;;;7.35;1.30;;;;;;;-146.18;100.00;67994.34;9986968;29;20147;-65
2021/04/13 16:29:00;;;;;;;7.43;2.03;;;;;;;-146.18;100.00;67994.34;9984245;29;20071;-67
2021/04/13 16:34:02;;;;;;;8.35;1.70;;;;;;;-146.18;100.00;67994.34;9977725;29;20041;-68
2021/04/13 16:39:05;;;;;;;10.48;1.67;;;;;;;-146.18;100.00;67994.34;9977548;29;20064;-66
2021/04/13 16:44:03;;;;;;;6.70;1.23;;;;;;;-146.18;100.00;67994.34;9988555;29;20075;-67
2021/04/13 16:49:04;;;;;;;12.20;1.98;;;;;;;-146.18;100.00;67994.34;9981057;29;20100;-66
2021/04/13 16:54:00;;;;;;;11.90;1.33;;;;;;;-146.18;100.00;67994.34;9981220;29;20056;-67
2021/04/13 16:58:56;;;;;;;11.85;1.70;;;;;;;-146.18;100.00;67994.34;9983491;29;20131;-69
2021/04/13 17:03:55;;;;;;;14.40;2.00;;;;;;;-146.18;100.00;67994.34;9984319;29;20096;-66
2021/04/13 17:08:57;;;;;;;11.27;2.13;;;;;;;-146.18;100.00;67994.34;9994583;28;20130;-67
2021/04/13 17:21:02;;;;;;;10.15;1.42;;;;;;;-146.18;100.00;67994.34;9989299;29;20036;-65
2021/04/13 17:26:47;;;;;;;10.80;1.77;;;;;;;-146.18;100.00;67994.34;9995307;29;20048;-64
2021/04/13 17:31:46;;;;;;;4.78;1.30;;;;;;;-146.18;100.00;67994.34;10008907;29;20044;-64
2021/04/13 17:36:45;;;;;;;13.05;1.95;;;;;;;-146.18;100.00;67994.34;9997925;29;20431;-66
2021/04/13 17:41:46;;;;;;;10.98;2.25;;;;;;;-146.18;100.00;67994.34;10000009;29;20076;-67
2021/04/13 17:47:03;;;;;;;8.30;2.22;;;;;;;-146.18;100.00;67994.34;9974418;29;20147;-67
2021/04/13 17:52:00;;;;;;;18.48;2.97;;;;;;;-146.18;100.00;67994.34;9998912;29;20056;-65
2021/04/13 17:57:17;;;;;;;11.98;2.08;;;;;;;-146.18;100.00;67994.34;9983303;29;20111;-67
2021/04/13 18:02:26;;;;;;;12.77;2.92;;;;;;;-146.18;100.00;67994.34;9999479;29;20392;-68
2021/04/13 18:07:27;;;;;;;18.80;4.38;;;;;;;-146.18;100.00;67994.34;9996081;29;20161;-66
2021/04/13 18:12:27;;;;;;;14.43;3.78;;;;;;;-146.18;100.00;67994.34;9996804;29;20044;-67
2021/04/13 18:17:30;;;;;;;14.02;2.15;;;;;;;-146.18;100.00;67994.34;9990985;29;20040;-66
2021/04/13 18:22:28;;;;;;;12.18;2.40;;;;;;;-146.18;100.00;67994.34;10005131;29;20064;-67
2021/04/13 18:27:39;;;;;;;18.42;5.03;;;;;;;-146.18;100.00;67994.34;9991106;29;20056;-68
2021/04/13 18:32:42;;;;;;;19.58;4.00;;;;;;;-146.18;100.00;67994.34;9989395;29;20060;-67
2021/04/13 18:38:03;;;;;;;11.35;2.08;;;;;;;-146.18;100.00;67994.34;9991447;29;20056;-67
2021/04/13 18:43:13;;;;;;;11.13;1.98;;;;;;;-146.18;100.00;67994.34;9995349;29;20052;-65
2021/04/13 18:48:31;;;;;;;12.95;1.83;;;;;;;-146.18;100.00;67994.34;9996588;29;20091;-62
2021/04/13 18:53:40;;;;;;;16.08;3.67;;;;;;;-146.18;100.00;67994.34;9989344;29;20491;-66
2021/04/13 18:58:43;;;;;;;18.88;2.67;;;;;;;-146.18;100.00;67994.34;10001440;29;20186;-67
2021/04/13 19:03:40;;;;;;;10.10;2.10;;;;;;;-146.18;100.00;67994.34;10008017;29;20099;-64
2021/04/13 19:08:45;;;;;;;13.82;2.78;;;;;;;-146.18;100.00;67994.34;10008116;29;20044;-68
2021/04/13 19:13:53;;;;;;;12.77;2.35;;;;;;;-146.18;100.00;67994.34;9989205;29;20071;-67
2021/04/13 19:18:55;;;;;;;14.48;2.13;;;;;;;-146.18;100.00;67994.34;9996390;29;20116;-66
2021/04/13 19:24:01;;;;;;;13.77;2.70;;;;;;;-146.18;100.00;67994.34;9994808;29;20051;-65
2021/04/13 19:29:16;;;;;;;10.88;1.80;;;;;;;-146.18;100.00;67994.34;9990052;29;20047;-64
2021/04/13 19:34:28;;;;;;;9.35;1.55;;;;;;;-146.18;100.00;67994.34;9979265;29;20048;-66
2021/04/13 19:39:27;;;;;;;13.88;2.58;;;;;;;-146.18;100.00;67994.34;9990813;29;20530;-66
2021/04/13 19:44:31;;;;;;;13.07;1.40;;;;;;;-146.18;100.00;67994.34;9994010;29;20474;-68
2021/04/13 19:49:31;;;;;;;11.38;1.58;;;;;;;-146.18;100.00;67994.34;9985548;29;20431;-67
2021/04/13 19:54:34;;;;;;;14.73;2.00;;;;;;;-146.18;100.00;67994.34;9995842;29;20137;-67
2021/04/13 19:59:36;;;;;;;18.83;2.83;;;;;;;-146.18;100.00;67994.34;9967238;29;20142;-67
2021/04/13 20:04:37;;;;;;;12.50;2.00;;;;;;;-146.18;100.00;67994.34;9992175;29;20043;-69
2021/04/13 20:09:35;;;;;;;13.23;3.25;;;;;;;-146.18;100.00;67994.34;9990317;29;20055;-68
2021/04/13 20:14:40;;;;;;;14.15;3.97;;;;;;;-146.18;100.00;67994.34;10000677;29;20721;-68
2021/04/13 20:19:38;;;;;;;12.45;3.10;;;;;;;-146.18;100.00;67994.34;9991080;29;20055;-68
2021/04/13 20:24:43;;;;;;;13.35;2.80;;;;;;;-146.18;100.00;67994.34;9997468;29;20131;-67
2021/04/13 20:29:48;;;;;;;13.93;2.42;;;;;;;-146.18;100.00;67994.34;9997280;29;20045;-69
2021/04/13 20:39:59;;;;;;;14.68;2.20;;;;;;;-146.18;100.00;67994.34;9999553;29;20108;-69
2021/04/13 20:44:58;;;;;;;16.90;2.58;;;;;;;-146.18;100.00;67994.34;9997106;29;20687;-69
2021/04/13 20:50:15;;;;;;;13.25;2.15;;;;;;;-146.18;100.00;67994.34;9984063;29;20060;-68
2021/04/13 20:55:26;;;;;;;15.75;3.13;;;;;;;-146.18;100.00;67994.34;10000618;29;20122;-68
2021/04/13 21:00:38;;;;;;;12.85;2.05;;;;;;;-146.18;100.00;67994.34;9999106;29;20047;-68
2021/04/13 21:05:41;;;;;;;9.82;1.58;;;;;;;-146.18;100.00;67994.34;10001669;29;20057;-68
2021/04/13 21:10:46;;;;;;;11.97;1.93;;;;;;;-146.18;100.00;67994.34;10011377;29;20056;-68
2021/04/13 21:15:43;;;;;;;9.85;2.13;;;;;;;-146.18;100.00;67994.34;10003021;29;20048;-67
2021/04/13 21:20:40;;;;;;;15.55;2.00;;;;;;;-146.18;100.00;67994.34;9997538;29;20063;-67
2021/04/13 21:25:43;;;;;;;16.30;2.10;;;;;;;-146.18;100.00;67994.34;9991111;29;20060;-67
2021/04/13 21:30:39;;;;;;;16.38;3.70;;;;;;;-146.18;100.00;67994.34;10000180;29;20072;-66
2021/04/13 21:35:42;;;;;;;18.52;2.15;;;;;;;-146.18;100.00;67994.34;9999756;29;20063;-68
2021/04/13 21:40:50;;;;;;;17.52;2.53;;;;;;;-146.18;100.00;67994.34;10007055;29;20419;-67
2021/04/13 21:45:52;;;;;;;14.55;2.20;;;;;;;-146.18;100.00;67994.34;9993091;29;20107;-67
2021/04/13 21:50:51;;;;;;;16.25;2.38;;;;;;;-146.18;100.00;67994.34;9989931;29;20110;-68
2021/04/13 21:55:50;;;;;;;18.50;2.45;;;;;;;-146.18;100.00;67994.34;10008765;29;20733;-67
2021/04/13 22:00:52;;;;;;;21.55;2.08;;;;;;;-146.18;100.00;67994.34;10000200;29;20056;-66
2021/04/13 22:06:06;;;;;;;13.93;2.13;;;;;;;-146.18;100.00;67994.34;9998304;29;20076;-66
2021/04/13 22:11:05;;;;;;;17.00;1.67;;;;;;;-146.18;100.00;67994.34;10004737;29;20048;-67
2021/04/13 22:16:02;;;;;;;19.00;2.92;;;;;;;-146.18;100.00;67994.34;9999176;29;20071;-66
2021/04/13 22:21:18;;;;;;;10.90;1.92;;;;;;;-146.18;100.00;67994.34;9993822;29;20112;-67
2021/04/13 22:26:21;;;;;;;13.18;2.10;;;;;;;-146.18;100.00;67994.34;9993031;29;20055;-67
2021/04/13 22:31:27;;;;;;;20.85;2.67;;;;;;;-146.18;100.00;67994.34;10000302;29;20051;-67
2021/04/13 22:36:38;;;;;;;18.15;2.67;;;;;;;-146.18;100.00;67994.34;9997338;29;20055;-67
2021/04/13 22:41:36;;;;;;;13.38;3.05;;;;;;;-146.18;100.00;67994.34;10005106;29;20198;-67
2021/04/13 22:46:35;;;;;;;18.13;2.22;;;;;;;-146.18;100.00;67994.34;9997501;29;20498;-67
2021/04/13 22:51:35;;;;;;;15.48;2.80;;;;;;;-146.18;100.00;67994.34;9991996;29;20051;-67
2021/04/13 22:56:47;;;;;;;16.33;2.58;;;;;;;-146.18;100.00;67994.34;9994928;29;20060;-67
2021/04/13 23:01:42;;;;;;;13.93;3.13;;;;;;;-146.18;100.00;67994.34;9988910;29;20107;-67
2021/04/13 23:06:40;;;;;;;13.20;2.42;;;;;;;-146.18;100.00;67994.34;9982925;29;20103;-67
2021/04/13 23:11:35;;;;;;;12.65;1.58;;;;;;;-146.18;100.00;67994.34;9994741;29;20048;-67
2021/04/13 23:16:31;;;;;;;9.30;2.03;;;;;;;-146.18;100.00;67994.34;9989757;29;20055;-67
2021/04/13 23:21:28;;;;;;;12.60;3.10;;;;;;;-146.18;100.00;67994.34;9987088;29;20123;-68
2021/04/13 23:26:24;;;;;;;18.17;2.50;;;;;;;-146.18;100.00;67994.34;9989427;29;20055;-67
2021/04/13 23:31:20;;;;;;;14.23;2.63;;;;;;;-146.18;100.00;67994.34;9993061;29;20127;-67
2021/04/13 23:36:16;;;;;;;24.17;2.38;;;;;;;-146.18;100.00;67994.34;9996903;29;20048;-67
2021/04/13 23:41:12;;;;;;;15.95;2.20;;;;;;;-146.18;100.00;67994.34;9997868;29;20047;-67
2021/04/13 23:46:08;;;;;;;12.73;2.05;;;;;;;-146.18;100.00;67994.34;9990659;29;20545;-67